createdAt,value
2023-01-23T00:00:29.394Z,11.15
2023-01-23T00:03:21.982Z,10.80
2023-01-23T00:05:58.845Z,12.27
2023-01-23T00:08:32.686Z,12.48
2023-01-23T00:11:10.997Z,9.43
2023-01-23T00:13:43.549Z,12.07
2023-01-23T00:16:18.220Z,10.40
2023-01-23T00:18:51.225Z,9.23
2023-01-23T00:21:25.642Z,10.23
2023-01-23T00:23:59.263Z,10.80
2023-01-23T00:26:33.353Z,8.43
2023-01-23T00:29:05.960Z,9.15
2023-01-23T00:31:39.848Z,10.68
2023-01-23T00:34:14.836Z,12.05
2023-01-23T00:36:49.896Z,10.27
2023-01-23T00:39:22.818Z,14.50
2023-01-23T00:41:55.734Z,14.02
2023-01-23T00:44:31.214Z,10.80
2023-01-23T00:47:04.419Z,9.98
2023-01-23T00:49:37.007Z,9.52
2023-01-23T00:52:11.498Z,9.32
2023-01-23T00:54:44.123Z,9.07
2023-01-23T00:57:17.059Z,9.75
2023-01-23T00:59:49.626Z,11.38
2023-01-23T01:02:22.939Z,9.93
2023-01-23T01:04:55.586Z,8.63
2023-01-23T01:07:28.481Z,10.90
2023-01-23T01:10:01.160Z,10.32
2023-01-23T01:12:34.026Z,9.63
2023-01-23T01:15:07.208Z,9.32
2023-01-23T01:17:40.114Z,10.35
2023-01-23T01:20:12.833Z,11.18
2023-01-23T01:22:45.947Z,9.95
2023-01-23T01:25:19.022Z,8.77
2023-01-23T01:27:51.898Z,10.75
2023-01-23T01:30:27.434Z,8.40
2023-01-23T01:33:00.312Z,9.38
2023-01-23T01:35:33.785Z,12.38
2023-01-23T01:38:06.683Z,10.55
2023-01-23T01:40:39.270Z,9.30
2023-01-23T01:43:19.216Z,9.52
2023-01-23T01:46:01.018Z,8.35
2023-01-23T01:48:40.663Z,9.35
2023-01-23T01:51:15.206Z,8.73
2023-01-23T01:53:50.108Z,8.05
2023-01-23T01:56:23.190Z,9.65
2023-01-23T01:58:56.964Z,8.98
2023-01-23T02:01:30.665Z,11.13
2023-01-23T02:04:04.716Z,9.25
2023-01-23T02:06:37.508Z,11.23
2023-01-23T02:09:16.333Z,9.15
2023-01-23T02:11:49.786Z,11.50
2023-01-23T02:14:26.072Z,9.90
2023-01-23T02:17:01.482Z,10.10
2023-01-23T02:19:45.919Z,11.00
2023-01-23T02:22:37.800Z,13.52
2023-01-23T02:25:32.258Z,13.18
2023-01-23T02:28:05.273Z,11.77
2023-01-23T02:30:47.231Z,13.07
2023-01-23T02:33:20.205Z,9.88
2023-01-23T02:35:53.439Z,11.65
2023-01-23T02:38:29.938Z,10.38
2023-01-23T02:41:04.709Z,11.25
2023-01-23T02:43:37.903Z,13.05
2023-01-23T02:46:13.031Z,14.55
2023-01-23T02:48:46.062Z,8.95
2023-01-23T02:51:19.153Z,11.13
2023-01-23T02:53:51.708Z,11.20
2023-01-23T02:56:24.721Z,10.80
2023-01-23T02:59:15.990Z,9.98
2023-01-23T03:01:48.936Z,10.00
2023-01-23T03:04:21.632Z,11.05
2023-01-23T03:06:54.649Z,10.15
2023-01-23T03:09:27.584Z,12.70
2023-01-23T03:12:01.176Z,7.90
2023-01-23T03:14:35.182Z,10.38
2023-01-23T03:17:08.250Z,10.60
2023-01-23T03:19:42.228Z,9.07
2023-01-23T03:22:15.292Z,10.18
2023-01-23T03:24:48.016Z,10.45
2023-01-23T03:27:21.220Z,9.15
2023-01-23T03:30:13.617Z,8.57
2023-01-23T03:32:46.827Z,11.43
2023-01-23T03:35:22.296Z,8.55
2023-01-23T03:37:58.345Z,8.77
2023-01-23T03:40:49.313Z,9.20
2023-01-23T03:43:25.565Z,11.27
2023-01-23T03:45:59.275Z,9.40
2023-01-23T03:48:32.252Z,10.88
2023-01-23T03:51:05.077Z,9.90
2023-01-23T03:53:38.642Z,9.65
2023-01-23T03:56:11.438Z,8.68
2023-01-23T03:58:44.399Z,9.30
2023-01-23T04:01:18.765Z,8.95
2023-01-23T04:03:51.918Z,9.13
2023-01-23T04:06:29.000Z,9.00
2023-01-23T04:09:03.103Z,7.95
2023-01-23T04:11:35.904Z,10.07
2023-01-23T04:14:08.891Z,11.55
2023-01-23T04:16:41.378Z,10.35
2023-01-23T04:19:15.256Z,8.63
2023-01-23T04:21:48.968Z,10.70
2023-01-23T04:24:22.909Z,9.32
2023-01-23T04:26:55.692Z,10.63
2023-01-23T04:29:30.639Z,10.40
2023-01-23T04:32:03.460Z,10.65
2023-01-23T04:34:38.159Z,9.50
2023-01-23T04:37:11.270Z,9.73
2023-01-23T04:39:45.298Z,10.27
2023-01-23T04:42:19.087Z,10.60
2023-01-23T04:45:03.881Z,11.07
2023-01-23T04:47:38.983Z,10.32
2023-01-23T04:50:17.033Z,9.48
2023-01-23T04:52:51.785Z,9.73
2023-01-23T04:55:25.201Z,10.77
2023-01-23T04:57:57.999Z,10.30
2023-01-23T05:00:32.613Z,10.15
2023-01-23T05:03:07.366Z,9.88
2023-01-23T05:05:40.605Z,11.10
2023-01-23T05:08:13.531Z,9.52
2023-01-23T05:10:49.377Z,8.43
2023-01-23T05:13:24.022Z,8.77
2023-01-23T05:15:57.728Z,11.13
2023-01-23T05:18:30.365Z,12.13
2023-01-23T05:21:03.530Z,9.63
2023-01-23T05:23:37.686Z,10.57
2023-01-23T05:26:10.689Z,8.98
2023-01-23T05:28:43.214Z,11.10
2023-01-23T05:31:16.267Z,9.25
2023-01-23T05:34:03.237Z,10.80
2023-01-23T05:36:36.633Z,9.88
2023-01-23T05:39:09.338Z,10.77
2023-01-23T05:41:43.096Z,14.88
2023-01-23T05:44:41.569Z,19.83
2023-01-23T05:47:20.861Z,16.15
2023-01-23T05:49:54.706Z,13.60
2023-01-23T05:52:31.866Z,12.23
2023-01-23T05:55:04.725Z,12.25
2023-01-23T05:57:39.145Z,15.65
2023-01-23T06:00:13.699Z,10.57
2023-01-23T06:03:02.100Z,13.63
2023-01-23T06:05:55.729Z,14.13
2023-01-23T06:08:28.730Z,11.75
2023-01-23T06:11:03.191Z,11.77
2023-01-23T06:13:36.630Z,12.13
2023-01-23T06:16:10.911Z,10.55
2023-01-23T06:18:44.564Z,9.98
2023-01-23T06:21:21.026Z,9.05
2023-01-23T06:23:56.149Z,11.45
2023-01-23T06:26:29.176Z,15.73
2023-01-23T06:29:03.276Z,12.57
2023-01-23T06:31:36.384Z,9.43
2023-01-23T06:34:09.476Z,14.93
2023-01-23T06:36:48.350Z,10.23
2023-01-23T06:39:21.435Z,28.08
2023-01-23T06:41:56.839Z,19.38
2023-01-23T06:44:29.761Z,12.30
2023-01-23T06:47:02.715Z,12.77
2023-01-23T06:49:35.849Z,12.48
2023-01-23T06:52:09.268Z,11.30
2023-01-23T06:54:42.316Z,13.63
2023-01-23T06:57:14.889Z,11.68
2023-01-23T06:59:49.806Z,10.95
2023-01-23T07:02:24.748Z,11.63
2023-01-23T07:04:57.795Z,10.10
2023-01-23T07:07:31.507Z,12.93
2023-01-23T07:10:04.634Z,13.10
2023-01-23T07:12:37.472Z,11.73
2023-01-23T07:15:10.962Z,15.88
2023-01-23T07:17:45.921Z,11.23
2023-01-23T07:20:19.339Z,13.02
2023-01-23T07:22:59.187Z,14.13
2023-01-23T07:25:32.023Z,12.13
2023-01-23T07:28:04.748Z,11.82
2023-01-23T07:30:37.805Z,10.63
2023-01-23T07:33:10.773Z,11.82
2023-01-23T07:35:43.580Z,11.70
2023-01-23T07:38:16.699Z,11.75
2023-01-23T07:40:50.369Z,11.43
2023-01-23T07:43:23.786Z,12.20
2023-01-23T07:45:59.013Z,11.15
2023-01-23T07:48:31.566Z,12.50
2023-01-23T07:51:05.141Z,11.10
2023-01-23T07:53:37.702Z,11.68
2023-01-23T07:56:10.872Z,15.63
2023-01-23T07:58:43.408Z,11.60
2023-01-23T08:01:16.344Z,10.93
2023-01-23T08:03:48.807Z,10.63
2023-01-23T08:06:22.038Z,9.55
2023-01-23T08:08:54.614Z,11.05
2023-01-23T08:11:28.217Z,10.13
2023-01-23T08:14:00.790Z,11.80
2023-01-23T08:16:33.887Z,14.27
2023-01-23T08:19:07.527Z,13.27
2023-01-23T08:21:40.802Z,9.07
2023-01-23T08:24:14.397Z,9.10
2023-01-23T08:26:47.498Z,11.15
2023-01-23T08:29:20.045Z,11.95
2023-01-23T08:31:55.378Z,9.70
2023-01-23T08:34:27.950Z,11.45
2023-01-23T08:37:00.869Z,15.02
2023-01-23T08:39:33.510Z,21.77
2023-01-23T08:42:06.361Z,30.83
2023-01-23T08:44:39.511Z,18.77
2023-01-23T08:47:12.426Z,18.45
2023-01-23T08:49:44.911Z,17.88
2023-01-23T08:52:17.840Z,18.38
2023-01-23T08:54:50.406Z,20.88
2023-01-23T08:57:23.268Z,14.55
2023-01-23T08:59:55.979Z,14.73
2023-01-23T09:02:29.012Z,13.32
2023-01-23T09:05:02.055Z,10.48
2023-01-23T09:07:37.225Z,12.07
2023-01-23T09:10:10.203Z,13.07
2023-01-23T09:12:43.540Z,10.05
2023-01-23T09:15:16.168Z,12.18
2023-01-23T09:17:49.561Z,13.90
2023-01-23T09:20:22.976Z,12.80
2023-01-23T09:22:56.010Z,13.15
2023-01-23T09:25:28.681Z,11.07
2023-01-23T09:28:02.009Z,10.80
2023-01-23T09:30:34.584Z,12.32
2023-01-23T09:33:07.977Z,11.95
2023-01-23T09:35:40.930Z,11.88
2023-01-23T09:38:13.952Z,14.27
2023-01-23T09:40:49.496Z,12.30
2023-01-23T09:43:45.434Z,12.18
2023-01-23T09:46:29.296Z,13.63
2023-01-23T09:49:14.772Z,10.02
2023-01-23T09:51:51.528Z,11.80
2023-01-23T09:54:38.079Z,11.95
2023-01-23T09:57:15.164Z,9.75
2023-01-23T10:00:00.884Z,11.45
2023-01-23T10:02:34.445Z,12.25
2023-01-23T10:05:14.064Z,12.07
2023-01-23T10:07:52.463Z,9.88
2023-01-23T10:10:28.527Z,9.25
2023-01-23T10:13:17.681Z,9.75
2023-01-23T10:15:59.932Z,11.75
2023-01-23T10:18:54.601Z,12.43
2023-01-23T10:21:34.537Z,12.43
2023-01-23T10:24:10.077Z,11.60
2023-01-23T10:26:43.966Z,10.68
2023-01-23T10:29:22.476Z,9.75
2023-01-23T10:32:00.154Z,12.15
2023-01-23T10:34:38.093Z,11.10
2023-01-23T10:37:13.809Z,11.35
2023-01-23T10:39:51.322Z,10.98
2023-01-23T10:42:25.880Z,11.57
2023-01-23T10:44:58.479Z,11.77
2023-01-23T10:47:34.487Z,12.35
2023-01-23T10:50:08.328Z,10.30
2023-01-23T10:52:42.662Z,9.23
2023-01-23T10:55:24.057Z,11.63
2023-01-23T11:00:36.876Z,28.92
2023-01-23T11:03:22.011Z,47.95
2023-01-23T11:06:02.275Z,46.53
2023-01-23T11:08:39.219Z,43.60
2023-01-23T11:11:14.818Z,45.03
2023-01-23T11:13:49.294Z,39.75
2023-01-23T11:16:22.923Z,30.60
2023-01-23T11:19:03.226Z,28.77
2023-01-23T11:21:38.270Z,24.55
2023-01-23T11:24:24.946Z,22.75
2023-01-23T11:27:15.855Z,22.25
2023-01-23T11:29:55.605Z,19.10
2023-01-23T11:32:29.530Z,18.95
2023-01-23T11:35:13.898Z,17.08
2023-01-23T11:37:46.461Z,11.63
2023-01-23T11:40:20.379Z,11.85
2023-01-23T11:42:53.819Z,13.88
2023-01-23T11:45:29.528Z,10.60
2023-01-23T11:48:08.105Z,13.68
2023-01-23T11:50:55.363Z,13.25
2023-01-23T11:53:41.914Z,15.63
2023-01-23T11:56:15.594Z,12.60
2023-01-23T11:58:50.881Z,12.40
2023-01-23T12:01:47.082Z,12.60
2023-01-23T12:04:24.616Z,12.00
2023-01-23T12:07:00.568Z,10.57
2023-01-23T12:09:45.461Z,12.10
2023-01-23T12:12:27.682Z,13.75
2023-01-23T12:18:05.327Z,12.10
2023-01-23T12:20:52.980Z,14.52
2023-01-23T12:23:37.005Z,20.75
2023-01-23T12:26:14.522Z,13.35
2023-01-23T12:28:56.240Z,11.27
2023-01-23T12:31:41.431Z,13.27
2023-01-23T12:34:24.482Z,11.50
2023-01-23T12:37:29.024Z,12.40
2023-01-23T12:40:12.454Z,12.43
2023-01-23T12:45:21.275Z,18.02
2023-01-23T12:47:56.774Z,18.23
2023-01-23T12:50:48.873Z,14.20
2023-01-23T12:53:25.478Z,18.73
2023-01-23T12:56:06.720Z,16.23
2023-01-23T12:58:43.003Z,18.87
2023-01-23T13:01:22.396Z,19.35
2023-01-23T13:04:00.756Z,16.77
2023-01-23T13:06:40.766Z,16.65
2023-01-23T13:09:19.505Z,15.18
2023-01-23T13:12:13.299Z,16.17
2023-01-23T13:17:42.351Z,16.85
2023-01-23T13:20:50.286Z,18.38
2023-01-23T13:23:25.631Z,16.92
2023-01-23T13:26:25.446Z,25.67
2023-01-23T13:29:04.814Z,14.93
2023-01-23T13:31:50.773Z,16.13
2023-01-23T13:34:23.744Z,12.85
2023-01-23T13:37:16.206Z,15.98
2023-01-23T13:40:06.818Z,14.38
2023-01-23T13:42:39.607Z,14.90
2023-01-23T13:45:18.335Z,16.50
2023-01-23T14:22:05.023Z,15.95
2023-01-23T14:24:44.810Z,16.15
2023-01-23T14:27:29.468Z,13.23
2023-01-23T14:30:03.233Z,16.35
2023-01-23T14:32:35.982Z,16.85
2023-01-23T14:35:18.813Z,17.10
2023-01-23T14:37:52.994Z,15.07
2023-01-23T14:40:28.713Z,16.20
2023-01-23T14:43:08.169Z,14.75
2023-01-23T14:45:46.890Z,17.92
2023-01-23T14:48:21.151Z,18.08
2023-01-23T14:51:05.666Z,17.73
2023-01-23T14:53:41.913Z,15.07
2023-01-23T14:56:14.867Z,13.88
2023-01-23T14:58:47.523Z,12.90
2023-01-23T15:01:20.596Z,13.18
2023-01-23T15:04:03.879Z,14.25
2023-01-23T15:06:37.065Z,14.80
2023-01-23T15:09:18.647Z,17.65
2023-01-23T15:14:26.250Z,12.57
2023-01-23T15:17:00.045Z,16.98
2023-01-23T15:19:34.496Z,16.80
2023-01-23T15:22:07.317Z,14.52
2023-01-23T15:24:39.852Z,17.67
2023-01-23T15:27:41.804Z,21.92
2023-01-23T15:30:40.774Z,14.68
2023-01-23T15:33:24.715Z,17.10
2023-01-23T15:36:05.809Z,15.35
2023-01-23T15:38:38.709Z,15.38
2023-01-23T15:41:11.280Z,13.07
2023-01-23T15:43:44.176Z,18.63
2023-01-23T15:46:16.848Z,13.38
2023-01-23T15:48:49.786Z,14.60
2023-01-23T15:51:22.313Z,16.63
2023-01-23T15:53:55.163Z,16.92
2023-01-23T15:56:30.137Z,16.65
2023-01-23T15:59:06.912Z,16.85
2023-01-23T16:01:39.529Z,14.68
2023-01-23T16:04:12.440Z,15.05
2023-01-23T16:06:45.365Z,14.60
2023-01-23T16:09:21.648Z,16.70
2023-01-23T16:11:54.324Z,17.08
2023-01-23T16:14:27.897Z,14.48
2023-01-23T16:17:15.268Z,16.27
2023-01-23T16:19:50.904Z,15.40
2023-01-23T16:22:26.173Z,14.00
2023-01-23T16:24:59.143Z,13.88
2023-01-23T16:27:31.801Z,14.82
2023-01-23T16:30:04.897Z,15.68
2023-01-23T16:32:37.491Z,13.27
2023-01-23T16:35:12.352Z,18.35
2023-01-23T16:37:46.997Z,18.88
2023-01-23T16:40:23.887Z,14.95
2023-01-23T16:42:56.671Z,15.52
2023-01-23T16:45:30.972Z,16.02
2023-01-23T16:48:04.321Z,14.73
2023-01-23T16:50:38.571Z,14.90
2023-01-23T16:53:29.556Z,18.08
2023-01-23T16:56:03.192Z,16.58
2023-01-23T16:58:39.500Z,17.38
2023-01-23T17:01:15.704Z,16.33
2023-01-23T17:03:58.804Z,18.40
2023-01-23T17:06:31.857Z,15.73
2023-01-23T17:09:04.460Z,15.32
2023-01-23T17:11:38.922Z,16.75
2023-01-23T17:14:14.476Z,17.35
2023-01-23T17:16:48.859Z,16.02
2023-01-23T17:19:24.545Z,16.45
2023-01-23T17:21:58.854Z,15.02
2023-01-23T17:24:31.495Z,17.10
2023-01-23T17:27:04.555Z,13.57
2023-01-23T17:29:37.112Z,19.50
2023-01-23T17:32:28.605Z,16.60
2023-01-23T17:35:03.168Z,15.18
2023-01-23T17:37:36.342Z,18.13
2023-01-23T17:40:12.547Z,20.40
2023-01-23T17:42:45.581Z,18.15
2023-01-23T17:45:19.652Z,16.80
2023-01-23T17:47:53.667Z,16.08
2023-01-23T17:50:26.645Z,15.88
2023-01-23T17:52:59.477Z,16.42
2023-01-23T17:55:32.998Z,17.73
2023-01-23T17:58:05.942Z,16.92
2023-01-23T18:00:39.242Z,18.67
2023-01-23T18:03:13.465Z,19.15
2023-01-23T18:05:46.069Z,16.02
2023-01-23T18:08:20.177Z,18.23
2023-01-23T18:10:53.954Z,16.60
2023-01-23T18:13:56.317Z,17.67
2023-01-23T18:16:40.499Z,17.23
2023-01-23T18:19:19.749Z,17.02
2023-01-23T18:21:53.589Z,17.20
2023-01-23T18:24:28.651Z,14.73
2023-01-23T18:27:09.102Z,16.05
2023-01-23T18:29:42.190Z,15.48
2023-01-23T18:32:33.348Z,16.55
2023-01-23T18:35:44.660Z,17.42
2023-01-23T18:38:21.693Z,16.67
2023-01-23T18:40:57.174Z,17.30
2023-01-23T18:43:32.862Z,16.05
2023-01-23T18:46:16.160Z,14.77
2023-01-23T18:48:49.806Z,15.48
2023-01-23T18:51:25.730Z,15.02
2023-01-23T18:54:01.218Z,15.18
2023-01-23T18:56:50.767Z,16.67
2023-01-23T18:59:32.415Z,14.27
2023-01-23T19:02:14.710Z,14.50
2023-01-23T19:04:52.312Z,12.38
2023-01-23T19:07:25.380Z,12.77
2023-01-23T19:09:58.558Z,15.18
2023-01-23T19:12:36.385Z,13.43
2023-01-23T19:15:12.239Z,12.40
2023-01-23T19:17:45.674Z,13.13
2023-01-23T19:20:27.061Z,12.00
2023-01-23T19:23:12.412Z,12.45
2023-01-23T19:25:48.235Z,12.38
2023-01-23T19:28:21.269Z,14.73
2023-01-23T19:30:53.908Z,14.63
2023-01-23T19:33:26.746Z,12.50
2023-01-23T19:36:00.123Z,12.80
2023-01-23T19:38:33.020Z,14.32
2023-01-23T19:41:06.334Z,12.15
2023-01-23T19:43:39.365Z,13.52
2023-01-23T19:46:11.956Z,10.98
2023-01-23T19:48:44.911Z,12.30
2023-01-23T19:51:18.738Z,13.30
2023-01-23T19:53:51.640Z,13.65
2023-01-23T19:56:24.228Z,13.38
2023-01-23T19:58:57.027Z,15.18
2023-01-23T20:01:41.460Z,10.95
2023-01-23T20:04:20.281Z,13.57
2023-01-23T20:06:52.961Z,12.52
2023-01-23T20:09:25.948Z,11.32
2023-01-23T20:11:58.424Z,11.45
2023-01-23T20:14:31.319Z,10.55
2023-01-23T20:17:03.901Z,11.65
2023-01-23T20:19:38.818Z,12.25
2023-01-23T20:22:11.310Z,10.52
2023-01-23T20:24:44.227Z,13.85
2023-01-23T20:27:16.769Z,11.48
2023-01-23T20:29:52.621Z,14.60
2023-01-23T20:32:25.094Z,13.45
2023-01-23T20:34:58.570Z,10.18
2023-01-23T20:37:31.175Z,11.85
2023-01-23T20:40:04.358Z,12.48
2023-01-23T20:42:36.841Z,11.23
2023-01-23T20:45:09.929Z,13.68
2023-01-23T20:47:42.531Z,11.80
2023-01-23T20:50:15.605Z,11.35
2023-01-23T20:53:06.639Z,9.93
2023-01-23T20:55:39.572Z,10.55
2023-01-23T20:58:30.875Z,11.98
2023-01-23T21:01:04.105Z,11.32
2023-01-23T21:03:36.845Z,10.38
2023-01-23T21:06:10.754Z,12.75
2023-01-23T21:08:43.605Z,12.13
2023-01-23T21:11:17.965Z,11.77
2023-01-23T21:13:51.340Z,14.05
2023-01-23T21:16:24.269Z,11.48
2023-01-23T21:18:57.015Z,11.43
2023-01-23T21:21:30.111Z,12.63
2023-01-23T21:24:02.652Z,11.23
2023-01-23T21:26:35.631Z,12.65
2023-01-23T21:29:08.672Z,11.85
2023-01-23T21:31:42.379Z,12.02
2023-01-23T21:34:15.001Z,12.38
2023-01-23T21:36:47.930Z,12.82
2023-01-23T21:39:22.058Z,10.68
2023-01-23T21:41:55.000Z,11.23
2023-01-23T21:44:27.580Z,10.20
2023-01-23T21:47:00.435Z,11.07
2023-01-23T21:49:32.969Z,10.45
2023-01-23T21:52:06.008Z,12.13
2023-01-23T21:54:41.838Z,12.30
2023-01-23T21:57:14.722Z,10.00
2023-01-23T22:00:07.180Z,10.82
2023-01-23T22:02:46.021Z,7.80
2023-01-23T22:05:19.056Z,8.82
2023-01-23T22:07:52.230Z,9.38
2023-01-23T22:10:24.823Z,8.32
2023-01-23T22:12:57.881Z,9.07
2023-01-23T22:15:30.410Z,8.23
2023-01-23T22:18:03.654Z,7.28
2023-01-23T22:20:37.980Z,9.02
2023-01-23T22:23:10.982Z,7.50
2023-01-23T22:25:43.464Z,7.60
2023-01-23T22:28:16.781Z,7.22
2023-01-23T22:30:49.450Z,6.20
2023-01-23T22:33:24.038Z,7.32
2023-01-23T22:35:58.131Z,7.45
2023-01-23T22:38:31.029Z,7.97
2023-01-23T22:41:04.850Z,6.65
2023-01-23T22:43:37.671Z,6.80
2023-01-23T22:46:14.607Z,6.90
2023-01-23T22:48:47.491Z,8.13
2023-01-23T22:51:24.385Z,7.43
2023-01-23T22:53:58.320Z,7.65
2023-01-23T22:56:31.743Z,7.00
2023-01-23T22:59:04.682Z,8.15
2023-01-23T23:01:37.301Z,6.95
2023-01-23T23:04:10.626Z,7.30
2023-01-23T23:06:43.213Z,7.95
2023-01-23T23:09:16.204Z,8.13
2023-01-23T23:11:50.458Z,8.60
2023-01-23T23:14:23.332Z,8.50
2023-01-23T23:16:55.871Z,7.18
2023-01-23T23:19:28.907Z,6.55
2023-01-23T23:22:01.403Z,8.05
2023-01-23T23:24:34.263Z,8.48
2023-01-23T23:27:06.846Z,9.68
2023-01-23T23:29:39.846Z,7.43
2023-01-23T23:32:12.488Z,8.90
2023-01-23T23:34:45.341Z,7.63
2023-01-23T23:37:17.913Z,7.90
2023-01-23T23:39:50.924Z,7.65
2023-01-23T23:42:23.393Z,7.15
2023-01-23T23:44:56.320Z,7.65
2023-01-23T23:47:28.835Z,6.95
2023-01-23T23:50:01.747Z,6.70
2023-01-23T23:52:36.014Z,6.97
2023-01-23T23:55:09.675Z,6.07
2023-01-23T23:57:42.520Z,6.50
